SBPB/PHB METAR and TAF weather

Enter ICAO airport designator
Station Type Date Time Source
SBPB METAR 2020/07/13 21:00 UTC NOAA

SBPB 132100Z /////KT 9999 FEW017 ///// Q////


Station Type Date Time Source
SBPB Decoded METAR 2020/07/13 21:00 UTC NOAA

Parnaiba Aeroporto , Brazil (SBPB) 02-55S 041-45W
Jul 13, 2020 - 05:00 PM EDT / 2020.07.13 2100 UTC
Visibility: greater than 7 mile(s):0
Sky conditions: mostly clear
ob: SBPB 132100Z /////KT 9999 FEW017 ///// Q////
cycle: 21

Station Type Date Time Source
SBPB TAF 2020/07/14 06:36 UTC NOAA

TAF SBPB 140300Z 1406/1418 09005KT CAVOK TN23/1406Z TX30/1412Z
BECMG 1410/1412 9999 SCT020
RMK PAZ

Example: see airport list